TimeEST,TemperatureF,Dew PointF,Humidity,Sea Level PressureIn,VisibilityMPH,Wind Direction,Wind SpeedMPH,Gust SpeedMPH,PrecipitationIn,Events,Conditions,WindDirDegrees,DateUTC
12:15 AM,32.5,29.8,90,30.17,10.0,WSW,3.5,-,N/A,,Scattered Clouds,240,2013-01-06 05:15:00
12:35 AM,32.5,29.5,88,30.16,10.0,Calm,Calm,-,N/A,,Mostly Cloudy,0,2013-01-06 05:35:00
12:55 AM,32.5,30.0,90,30.15,10.0,Calm,Calm,-,N/A,,Overcast,0,2013-01-06 05:55:00
1:15 AM,32.5,29.7,89,30.15,10.0,Calm,Calm,-,N/A,,Overcast,0,2013-01-06 06:15:00
1:35 AM,32.5,30.4,92,30.14,10.0,Calm,Calm,-,N/A,,Overcast,0,2013-01-06 06:35:00
1:55 AM,33.6,30.7,89,30.13,10.0,Calm,Calm,-,N/A,,Overcast,0,2013-01-06 06:55:00
2:15 AM,35.1,31.1,85,30.13,10.0,Calm,Calm,-,N/A,,Overcast,0,2013-01-06 07:15:00
2:35 AM,35.1,31.1,85,30.12,10.0,SW,6.9,-,N/A,,Overcast,220,2013-01-06 07:35:00
2:55 AM,35.1,31.5,87,30.12,10.0,SSW,9.2,-,N/A,,Overcast,210,2013-01-06 07:55:00
3:15 AM,35.1,30.6,84,30.11,10.0,SSW,9.2,-,N/A,,Overcast,210,2013-01-06 08:15:00
3:35 AM,35.1,30.6,84,30.11,10.0,SSW,9.2,-,N/A,,Overcast,210,2013-01-06 08:35:00
3:55 AM,35.1,31.1,85,30.10,10.0,SSW,8.1,-,N/A,,Overcast,210,2013-01-06 08:55:00
4:15 AM,35.1,31.1,85,30.09,10.0,Calm,Calm,-,N/A,,Overcast,0,2013-01-06 09:15:00
4:35 AM,35.1,31.3,86,30.09,10.0,Calm,Calm,-,N/A,,Overcast,0,2013-01-06 09:35:00
5:15 AM,36.7,32.4,84,30.07,10.0,SW,9.2,-,N/A,,Overcast,230,2013-01-06 10:15:00
5:35 AM,35.1,31.6,87,30.07,10.0,SW,8.1,-,N/A,,Overcast,230,2013-01-06 10:35:00
5:55 AM,35.1,31.6,87,30.07,10.0,SW,9.2,-,N/A,,Overcast,230,2013-01-06 10:55:00
6:35 AM,35.1,31.8,88,30.06,10.0,SSW,8.1,-,N/A,,Overcast,210,2013-01-06 11:35:00
6:55 AM,35.1,31.8,88,30.07,10.0,SSW,6.9,-,N/A,,Overcast,210,2013-01-06 11:55:00
7:15 AM,35.2,32.0,88,30.08,10.0,SW,9.2,-,N/A,,Overcast,220,2013-01-06 12:15:00
7:35 AM,35.4,32.0,87,30.08,10.0,SSW,9.2,-,N/A,,Overcast,210,2013-01-06 12:35:00
7:55 AM,35.6,32.0,87,30.08,10.0,SSW,10.4,-,N/A,,Overcast,210,2013-01-06 12:55:00
8:15 AM,35.6,32.0,87,30.08,10.0,SW,9.2,-,N/A,,Overcast,220,2013-01-06 13:15:00
8:35 AM,36.9,33.3,87,30.08,10.0,SSW,10.4,-,N/A,,Overcast,210,2013-01-06 13:35:00
8:55 AM,35.6,32.0,87,30.07,10.0,SSW,11.5,-,N/A,,Overcast,200,2013-01-06 13:55:00
9:15 AM,37.6,33.8,86,30.08,10.0,SSW,11.5,-,N/A,,Overcast,210,2013-01-06 14:15:00
9:35 AM,37.6,33.8,86,30.08,10.0,SW,10.4,-,N/A,,Overcast,220,2013-01-06 14:35:00
9:55 AM,37.6,34.0,87,30.08,10.0,SW,10.4,-,N/A,,Overcast,220,2013-01-06 14:55:00
10:15 AM,37.6,34.0,87,30.08,10.0,SW,9.2,-,N/A,,Overcast,220,2013-01-06 15:15:00
10:35 AM,37.6,33.3,84,30.08,10.0,SW,11.5,-,N/A,,Overcast,220,2013-01-06 15:35:00
10:55 AM,37.6,33.4,85,30.08,10.0,SW,11.5,-,N/A,,Overcast,220,2013-01-06 15:55:00
11:15 AM,37.6,33.8,86,30.08,10.0,SW,11.5,-,N/A,,Overcast,220,2013-01-06 16:15:00
11:35 AM,37.6,33.8,86,30.06,10.0,SW,12.7,-,N/A,,Overcast,220,2013-01-06 16:35:00
11:55 AM,37.6,34.0,87,30.05,10.0,SW,12.7,-,N/A,,Overcast,230,2013-01-06 16:55:00
12:15 PM,37.6,34.2,87,30.05,10.0,SW,13.8,-,N/A,,Overcast,230,2013-01-06 17:15:00
12:35 PM,37.6,34.7,89,30.04,10.0,SW,10.4,-,N/A,,Overcast,230,2013-01-06 17:35:00
12:55 PM,37.6,35.2,91,30.04,7.0,SW,10.4,-,N/A,,Overcast,230,2013-01-06 17:55:00
1:15 PM,37.6,34.7,89,30.04,10.0,SW,10.4,-,N/A,,Overcast,230,2013-01-06 18:15:00
1:35 PM,37.6,34.2,87,30.04,10.0,WSW,13.8,17.3,N/A,,Overcast,240,2013-01-06 18:35:00
1:55 PM,37.6,34.3,88,30.05,5.0,West,16.1,23.0,N/A,,Overcast,280,2013-01-06 18:55:00
2:15 PM,32.5,30.7,93,30.08,7.0,WNW,16.1,27.6,N/A,,Overcast,290,2013-01-06 19:15:00
2:35 PM,32.5,32.0,98,30.08,2.5,WNW,12.7,-,N/A,,Overcast,300,2013-01-06 19:35:00
2:55 PM,32.5,31.8,97,30.10,4.0,West,12.7,21.9,N/A,,Overcast,280,2013-01-06 19:55:00
3:15 PM,32.5,29.3,88,30.12,10.0,West,10.4,-,N/A,,Overcast,270,2013-01-06 20:15:00
3:35 PM,32.5,28.4,85,30.14,10.0,West,17.3,25.3,N/A,,Overcast,280,2013-01-06 20:35:00
3:55 PM,32.5,28.0,83,30.16,10.0,WNW,12.7,23.0,N/A,,Overcast,290,2013-01-06 20:55:00
4:15 PM,32.5,28.6,85,30.17,10.0,West,12.7,17.3,N/A,,Overcast,280,2013-01-06 21:15:00
4:35 PM,32.5,28.8,86,30.18,10.0,West,17.3,21.9,N/A,,Overcast,270,2013-01-06 21:35:00
4:55 PM,32.5,28.4,85,30.20,10.0,WNW,9.2,-,N/A,,Overcast,290,2013-01-06 21:55:00
5:15 PM,32.5,28.6,85,30.20,10.0,WNW,11.5,16.1,N/A,,Overcast,290,2013-01-06 22:15:00
5:55 PM,28.4,24.1,84,30.23,10.0,NW,16.1,25.3,N/A,,Overcast,320,2013-01-06 22:55:00
6:15 PM,27.9,23.7,84,30.24,10.0,West,10.4,-,N/A,,Overcast,280,2013-01-06 23:15:00
6:35 PM,27.9,23.9,85,30.25,7.0,West,11.5,-,N/A,,Overcast,280,2013-01-06 23:35:00
6:55 PM,27.9,23.9,85,30.27,7.0,West,12.7,-,N/A,,Overcast,280,2013-01-06 23:55:00
7:15 PM,27.9,23.7,84,30.28,7.0,West,12.7,17.3,N/A,,Overcast,280,2013-01-07 00:15:00
7:35 PM,27.9,23.9,85,30.28,7.0,West,9.2,16.1,N/A,,Overcast,270,2013-01-07 00:35:00
7:55 PM,27.9,23.9,85,30.30,7.0,West,8.1,18.4,N/A,,Overcast,280,2013-01-07 00:55:00
8:15 PM,27.9,24.3,86,30.30,7.0,WNW,6.9,-,N/A,,Overcast,290,2013-01-07 01:15:00
8:35 PM,27.9,24.3,86,30.31,7.0,West,9.2,-,N/A,,Overcast,280,2013-01-07 01:35:00
8:55 PM,27.9,24.3,86,30.32,10.0,West,10.4,-,N/A,,Overcast,280,2013-01-07 01:55:00
9:15 PM,27.9,24.4,87,30.32,7.0,West,6.9,-,N/A,,Overcast,270,2013-01-07 02:15:00
9:35 PM,27.9,24.6,88,30.32,7.0,WNW,5.8,-,N/A,,Overcast,290,2013-01-07 02:35:00
9:55 PM,27.9,24.8,88,30.33,7.0,West,4.6,-,N/A,,Overcast,280,2013-01-07 02:55:00
10:15 PM,27.9,24.8,88,30.34,7.0,West,4.6,-,N/A,,Overcast,280,2013-01-07 03:15:00
10:55 PM,27.9,24.8,88,30.35,7.0,West,3.5,-,N/A,,Overcast,260,2013-01-07 03:55:00
11:15 PM,27.9,25.2,90,30.36,7.0,WSW,4.6,-,N/A,,Overcast,250,2013-01-07 04:15:00
11:35 PM,28.4,25.3,88,30.37,7.0,West,3.5,-,N/A,,Overcast,260,2013-01-07 04:35:00
11:55 PM,28.6,25.7,89,30.37,10.0,Calm,Calm,-,N/A,,Overcast,0,2013-01-07 04:55:00